createdAt,value
2022-12-15T00:00:50.797Z,100721.57
2022-12-15T00:03:38.283Z,100709.26
2022-12-15T00:06:26.046Z,100714.25
2022-12-15T00:09:14.553Z,100703.36
2022-12-15T00:12:02.718Z,100699.87
2022-12-15T00:14:49.821Z,100707.94
2022-12-15T00:17:37.766Z,100703.98
2022-12-15T00:20:25.719Z,100707.01
2022-12-15T00:23:12.947Z,100711.29
2022-12-15T00:26:01.858Z,100722.56
2022-12-15T00:28:49.078Z,100727.05
2022-12-15T00:31:36.654Z,100727.11
2022-12-15T00:34:23.964Z,100728.43
2022-12-15T00:37:11.153Z,100725.41
2022-12-15T00:39:40.584Z,100719.94
2022-12-15T00:42:10.803Z,100724.91
2022-12-15T00:44:40.432Z,100725.00
2022-12-15T00:47:09.964Z,100722.53
2022-12-15T00:49:57.354Z,100727.11
2022-12-15T00:52:44.533Z,100723.52
2022-12-15T00:55:31.305Z,100725.07
2022-12-15T00:58:18.446Z,100736.62
2022-12-15T01:01:05.637Z,100740.15
2022-12-15T01:03:53.033Z,100741.41
2022-12-15T01:06:40.365Z,100749.11
2022-12-15T01:09:29.847Z,100749.63
2022-12-15T01:12:17.496Z,100749.60
2022-12-15T01:15:05.011Z,100747.36
2022-12-15T01:17:52.338Z,100746.83
2022-12-15T01:20:21.844Z,100744.06
2022-12-15T01:22:56.149Z,100743.73
2022-12-15T01:25:27.544Z,100744.47
2022-12-15T01:27:56.832Z,100748.08
2022-12-15T01:30:27.879Z,100753.15
2022-12-15T01:32:57.127Z,100752.39
2022-12-15T01:35:27.889Z,100757.70
2022-12-15T01:37:57.233Z,100759.88
2022-12-15T01:40:44.322Z,100758.23
2022-12-15T01:43:16.843Z,100772.01
2022-12-15T01:45:52.422Z,100778.11
2022-12-15T01:48:42.070Z,100784.16
2022-12-15T01:51:19.895Z,100780.73
2022-12-15T01:53:55.523Z,100787.66
2022-12-15T01:56:26.119Z,100783.45
2022-12-15T01:58:57.328Z,100776.63
2022-12-15T02:01:26.826Z,100777.57
2022-12-15T02:03:56.590Z,100776.69
2022-12-15T02:06:27.561Z,100781.08
2022-12-15T02:08:57.802Z,100784.61
2022-12-15T02:11:42.108Z,100783.88
2022-12-15T02:14:13.326Z,100788.66
2022-12-15T02:16:54.947Z,100792.97
2022-12-15T02:19:48.158Z,100789.02
2022-12-15T02:22:33.732Z,100792.54
2022-12-15T02:25:21.025Z,100789.89
2022-12-15T02:28:07.611Z,100801.89
2022-12-15T02:31:12.525Z,100811.54
2022-12-15T02:33:47.644Z,100812.38
2022-12-15T02:36:32.058Z,100809.35
2022-12-15T02:39:02.097Z,100809.30
2022-12-15T02:41:45.859Z,100813.70
2022-12-15T02:44:30.490Z,100811.97
2022-12-15T02:47:06.429Z,100809.42
2022-12-15T02:50:03.327Z,100813.33
2022-12-15T02:53:09.402Z,100807.83
2022-12-15T02:56:00.274Z,100805.81
2022-12-15T02:58:35.591Z,100807.13
2022-12-15T03:01:14.037Z,100807.07
2022-12-15T03:03:44.385Z,100803.73
2022-12-15T03:06:13.609Z,100800.05
2022-12-15T03:08:42.834Z,100807.25
2022-12-15T03:11:12.070Z,100814.11
2022-12-15T03:13:41.639Z,100813.59
2022-12-15T03:16:10.912Z,100818.77
2022-12-15T03:18:40.196Z,100821.28
2022-12-15T03:21:09.534Z,100824.13
2022-12-15T03:23:38.754Z,100820.33
2022-12-15T03:26:08.106Z,100824.27
2022-12-15T03:28:37.361Z,100825.62
2022-12-15T03:31:07.247Z,100823.63
2022-12-15T03:33:36.487Z,100827.05
2022-12-15T03:36:05.975Z,100831.83
2022-12-15T03:38:35.202Z,100833.58
2022-12-15T03:41:04.548Z,100838.52
2022-12-15T03:43:34.178Z,100833.31
2022-12-15T03:46:03.932Z,100842.89
2022-12-15T03:48:33.260Z,100835.62
2022-12-15T03:51:02.483Z,100832.08
2022-12-15T03:53:32.214Z,100831.38
2022-12-15T03:56:01.957Z,100838.23
2022-12-15T03:58:31.212Z,100836.55
2022-12-15T04:01:00.623Z,100836.87
2022-12-15T04:03:30.437Z,100836.48
2022-12-15T04:06:00.003Z,100837.00
2022-12-15T04:08:29.234Z,100834.05
2022-12-15T04:10:58.800Z,100841.25
2022-12-15T04:13:28.378Z,100850.13
2022-12-15T04:15:57.844Z,100839.40
2022-12-15T04:18:27.073Z,100839.11
2022-12-15T04:20:56.594Z,100850.51
2022-12-15T04:23:25.814Z,100852.62
2022-12-15T04:26:12.907Z,100840.20
2022-12-15T04:29:00.306Z,100842.41
2022-12-15T04:31:49.311Z,100835.62
2022-12-15T04:34:42.236Z,100837.23
2022-12-15T04:37:31.421Z,100839.52
2022-12-15T04:40:19.557Z,100835.33
2022-12-15T04:43:07.186Z,100839.58
2022-12-15T04:45:54.072Z,100836.23
2022-12-15T04:48:41.411Z,100838.77
2022-12-15T04:51:28.731Z,100840.98
2022-12-15T04:54:15.793Z,100841.77
2022-12-15T04:57:03.081Z,100841.41
2022-12-15T04:59:50.327Z,100846.11
2022-12-15T05:02:38.155Z,100852.83
2022-12-15T05:05:26.313Z,100857.95
2022-12-15T05:08:16.766Z,100851.61
2022-12-15T05:11:04.295Z,100849.95
2022-12-15T05:13:51.458Z,100852.52
2022-12-15T05:16:38.322Z,100850.44
2022-12-15T05:19:25.587Z,100851.09
2022-12-15T05:22:12.600Z,100853.30
2022-12-15T05:25:00.386Z,100867.98
2022-12-15T05:27:47.461Z,100860.37
2022-12-15T05:30:34.855Z,100863.98
2022-12-15T05:33:07.921Z,100855.66
2022-12-15T05:35:37.181Z,100862.45
2022-12-15T05:38:07.235Z,100857.39
2022-12-15T05:40:36.896Z,100857.03
2022-12-15T05:43:06.605Z,100859.14
2022-12-15T05:45:35.847Z,100862.55
2022-12-15T05:48:06.104Z,100860.47
2022-12-15T05:50:35.432Z,100850.28
2022-12-15T05:53:06.381Z,100856.48
2022-12-15T05:55:35.837Z,100852.68
2022-12-15T05:58:05.074Z,100857.37
2022-12-15T06:00:34.720Z,100866.34
2022-12-15T06:03:04.570Z,100859.12
2022-12-15T06:05:34.934Z,100867.75
2022-12-15T06:08:04.158Z,100865.28
2022-12-15T06:10:33.538Z,100876.34
2022-12-15T06:13:02.758Z,100876.43
2022-12-15T06:15:31.990Z,100879.38
2022-12-15T06:18:01.212Z,100883.73
2022-12-15T06:20:30.755Z,100888.11
2022-12-15T06:22:59.982Z,100887.77
2022-12-15T06:25:29.316Z,100892.88
2022-12-15T06:28:01.837Z,100891.94
2022-12-15T06:30:29.502Z,100895.29
2022-12-15T06:32:59.011Z,100892.77
2022-12-15T06:35:28.677Z,100892.73
2022-12-15T06:37:58.485Z,100897.94
2022-12-15T06:40:27.791Z,100890.41
2022-12-15T06:42:57.063Z,100885.77
2022-12-15T06:45:26.654Z,100881.06
2022-12-15T06:48:01.094Z,100884.95
2022-12-15T06:50:27.688Z,100887.44
2022-12-15T06:52:57.170Z,100887.84
2022-12-15T06:55:26.762Z,100886.23
2022-12-15T06:57:55.985Z,100888.45
2022-12-15T07:00:25.381Z,100891.39
2022-12-15T07:02:55.149Z,100898.67
2022-12-15T07:05:25.116Z,100902.02
2022-12-15T07:07:54.655Z,100904.87
2022-12-15T07:10:24.032Z,100908.19
2022-12-15T07:12:53.278Z,100911.62
2022-12-15T07:15:22.503Z,100909.94
2022-12-15T07:17:52.218Z,100915.95
2022-12-15T07:20:27.000Z,100917.23
2022-12-15T07:22:53.444Z,100908.67
2022-12-15T07:25:22.825Z,100904.11
2022-12-15T07:27:52.645Z,100907.51
2022-12-15T07:30:21.925Z,100907.10
2022-12-15T07:32:51.757Z,100910.03
2022-12-15T07:35:21.050Z,100912.61
2022-12-15T07:37:51.086Z,100912.11
2022-12-15T07:40:20.454Z,100922.38
2022-12-15T07:42:49.931Z,100926.53
2022-12-15T07:45:19.252Z,100925.25
2022-12-15T07:47:51.131Z,100929.94
2022-12-15T07:50:20.566Z,100929.13
2022-12-15T07:52:51.573Z,100925.63
2022-12-15T07:55:37.203Z,100926.97
2022-12-15T07:57:52.206Z,100930.83
2022-12-15T08:00:21.804Z,100926.98
2022-12-15T08:02:51.540Z,100937.66
2022-12-15T08:05:20.915Z,100936.14
2022-12-15T08:07:50.692Z,100936.41
2022-12-15T08:10:19.928Z,100949.84
2022-12-15T08:12:49.642Z,100952.50
2022-12-15T08:15:18.905Z,100948.69
2022-12-15T08:17:48.129Z,100957.20
2022-12-15T08:20:17.504Z,100955.45
2022-12-15T08:22:47.007Z,100958.37
2022-12-15T08:25:16.304Z,100960.77
2022-12-15T08:27:46.386Z,100959.49
2022-12-15T08:30:15.763Z,100964.13
2022-12-15T08:32:51.569Z,100963.26
2022-12-15T08:35:46.814Z,100969.15
2022-12-15T08:37:47.740Z,100973.73
2022-12-15T08:40:17.067Z,100968.16
2022-12-15T08:42:46.811Z,100970.16
2022-12-15T08:45:16.217Z,100971.77
2022-12-15T08:47:45.731Z,100979.75
2022-12-15T08:50:14.970Z,100986.30
2022-12-15T08:53:06.681Z,100984.30
2022-12-15T08:55:22.127Z,100977.74
2022-12-15T08:57:46.976Z,100977.20
2022-12-15T09:00:18.146Z,100979.17
2022-12-15T09:02:47.791Z,100972.58
2022-12-15T09:05:17.144Z,100983.16
2022-12-15T09:07:46.369Z,100987.36
2022-12-15T09:10:17.827Z,100988.50
2022-12-15T09:12:47.426Z,100992.50
2022-12-15T09:15:17.293Z,100991.79
2022-12-15T09:17:47.277Z,100984.34
2022-12-15T09:20:18.096Z,100989.19
2022-12-15T09:22:47.595Z,100989.27
2022-12-15T09:25:18.853Z,100994.57
2022-12-15T09:27:48.307Z,100992.35
2022-12-15T09:30:17.851Z,100995.46
2022-12-15T09:32:47.320Z,100993.84
2022-12-15T09:35:17.786Z,101003.49
2022-12-15T09:37:51.698Z,101011.42
2022-12-15T09:40:19.351Z,101015.52
2022-12-15T09:43:05.072Z,101022.31
2022-12-15T09:45:30.257Z,101033.18
2022-12-15T09:48:06.082Z,101037.28
2022-12-15T09:50:38.777Z,101037.36
2022-12-15T09:53:29.813Z,101040.84
2022-12-15T09:55:44.197Z,101036.87
2022-12-15T09:58:46.246Z,101040.36
2022-12-15T10:01:20.438Z,101029.75
2022-12-15T10:04:04.894Z,101033.72
2022-12-15T10:06:37.289Z,101040.74
2022-12-15T10:09:27.051Z,101040.58
2022-12-15T10:12:01.440Z,101046.98
2022-12-15T10:14:33.722Z,101038.95
2022-12-15T10:17:09.060Z,101032.59
2022-12-15T10:19:45.310Z,101023.49
2022-12-15T10:22:22.715Z,101020.51
2022-12-15T10:27:29.213Z,101033.18
2022-12-15T10:30:04.915Z,101026.11
2022-12-15T10:32:52.700Z,101035.65
2022-12-15T10:35:29.168Z,101039.90
2022-12-15T10:38:03.582Z,101038.91
2022-12-15T10:40:54.857Z,101038.45
2022-12-15T10:43:38.699Z,101043.28
2022-12-15T10:46:19.729Z,101031.84
2022-12-15T10:48:54.463Z,101033.52
2022-12-15T10:51:48.037Z,101033.52
2022-12-15T10:54:18.343Z,101030.87
2022-12-15T10:56:59.524Z,101033.52
2022-12-15T10:59:34.129Z,101032.88
2022-12-15T11:02:25.846Z,101030.57
2022-12-15T11:05:06.658Z,101020.75
2022-12-15T11:07:41.162Z,101022.66
2022-12-15T11:10:25.205Z,101016.40
2022-12-15T11:13:28.482Z,101019.61
2022-12-15T11:15:57.089Z,101019.02
2022-12-15T11:18:35.587Z,101020.63
2022-12-15T11:21:21.735Z,101022.53
2022-12-15T11:24:21.874Z,101020.92
2022-12-15T11:26:59.954Z,101018.30
2022-12-15T11:29:40.932Z,101017.61
2022-12-15T11:32:15.686Z,101010.48
2022-12-15T11:34:47.095Z,101004.50
2022-12-15T11:37:19.579Z,101011.25
2022-12-15T11:40:06.781Z,101013.38
2022-12-15T11:42:45.143Z,101013.69
2022-12-15T11:45:32.774Z,101012.78
2022-12-15T11:48:07.836Z,101015.20
2022-12-15T11:50:59.183Z,101015.58
2022-12-15T11:53:49.433Z,101018.30
2022-12-15T11:56:30.827Z,101011.81
2022-12-15T11:59:35.460Z,101009.66
2022-12-15T12:02:37.122Z,101011.55
2022-12-15T12:05:38.270Z,101007.11
2022-12-15T12:08:23.303Z,101004.64
2022-12-15T12:11:22.810Z,101006.45
2022-12-15T12:14:11.839Z,101007.69
2022-12-15T12:17:17.980Z,101004.95
2022-12-15T12:19:56.137Z,101004.08
2022-12-15T12:22:34.828Z,101005.98
2022-12-15T12:25:12.820Z,101000.19
2022-12-15T12:28:05.815Z,100997.89
2022-12-15T12:30:44.178Z,101002.87
2022-12-15T12:33:25.501Z,101001.22
2022-12-15T12:35:57.321Z,101003.23
2022-12-15T12:38:35.292Z,100993.55
2022-12-15T12:41:16.740Z,100989.31
2022-12-15T12:43:50.518Z,100987.73
2022-12-15T12:46:31.663Z,100985.47
2022-12-15T12:49:11.101Z,100983.80
2022-12-15T12:51:44.013Z,100950.41
2022-12-15T12:54:40.234Z,100981.34
2022-12-15T12:57:18.553Z,100973.77
2022-12-15T13:00:03.489Z,100970.17
2022-12-15T13:02:37.595Z,100969.53
2022-12-15T13:05:29.157Z,100960.93
2022-12-15T13:08:11.105Z,100955.21
2022-12-15T13:10:42.214Z,100953.66
2022-12-15T13:13:33.443Z,100959.77
2022-12-15T13:16:26.112Z,100959.14
2022-12-15T13:19:04.619Z,100953.23
2022-12-15T13:24:34.533Z,100943.14
2022-12-15T13:27:15.233Z,100949.76
2022-12-15T13:30:01.771Z,100948.79
2022-12-15T13:32:36.388Z,100941.16
2022-12-15T13:35:17.549Z,100935.22
2022-12-15T13:37:57.271Z,100927.71
2022-12-15T13:40:38.624Z,100926.34
2022-12-15T13:43:10.712Z,100924.72
2022-12-15T13:45:54.771Z,100922.65
2022-12-15T13:48:39.474Z,100919.50
2022-12-15T13:51:31.206Z,100919.50
2022-12-15T13:54:22.211Z,100924.17
2022-12-15T13:56:57.566Z,100909.62
2022-12-15T13:59:35.874Z,100913.38
2022-12-15T14:02:07.582Z,100909.45
2022-12-15T14:04:36.856Z,100909.92
2022-12-15T14:07:07.265Z,100906.84
2022-12-15T14:09:39.352Z,100909.28
2022-12-15T14:12:11.941Z,100910.69
2022-12-15T14:14:49.339Z,100904.12
2022-12-15T14:17:20.555Z,100902.73
2022-12-15T14:22:28.597Z,100895.91
2022-12-15T14:25:06.097Z,100901.29
2022-12-15T14:27:35.520Z,100897.64
2022-12-15T14:30:24.289Z,100894.61
2022-12-15T14:32:59.499Z,100897.56
2022-12-15T14:35:44.134Z,100905.45
2022-12-15T14:38:24.234Z,100904.09
2022-12-15T14:40:56.174Z,100904.30
2022-12-15T14:43:29.044Z,100902.25
2022-12-15T14:46:08.625Z,100896.55
2022-12-15T14:48:44.164Z,100896.16
2022-12-15T14:51:15.072Z,100895.64
2022-12-15T14:53:47.280Z,100893.44
2022-12-15T14:56:29.464Z,100897.59
2022-12-15T14:59:19.672Z,100897.34
2022-12-15T15:02:01.520Z,100897.08
2022-12-15T15:03:15.758Z,100945.89
2022-12-15T15:04:34.830Z,100900.88
2022-12-15T15:07:06.450Z,100897.41
2022-12-15T15:09:40.567Z,100904.39
2022-12-15T15:12:15.474Z,100902.30
2022-12-15T15:15:02.376Z,100904.55
2022-12-15T15:17:40.162Z,100908.44
2022-12-15T15:20:18.569Z,100904.92
2022-12-15T15:22:48.944Z,100906.59
2022-12-15T15:25:40.340Z,100898.58
2022-12-15T15:28:23.786Z,100898.85
2022-12-15T15:31:02.715Z,100899.14
2022-12-15T15:33:33.095Z,100899.57
2022-12-15T15:36:05.116Z,100894.02
2022-12-15T15:38:39.634Z,100894.02
2022-12-15T15:41:24.176Z,100897.33
2022-12-15T15:43:53.568Z,100894.45
2022-12-15T15:46:25.743Z,100891.06
2022-12-15T15:48:59.068Z,100893.72
2022-12-15T15:51:29.534Z,100888.83
2022-12-15T15:54:05.535Z,100888.11
2022-12-15T15:56:35.015Z,100895.03
2022-12-15T15:59:12.465Z,100896.33
2022-12-15T16:01:42.084Z,100892.07
2022-12-15T16:04:12.370Z,100895.95
2022-12-15T16:06:47.073Z,100895.53
2022-12-15T16:09:13.752Z,100897.80
2022-12-15T16:11:43.321Z,100897.23
2022-12-15T16:14:14.737Z,100900.03
2022-12-15T16:16:44.880Z,100897.73
2022-12-15T16:19:14.379Z,100898.59
2022-12-15T16:21:44.096Z,100897.74
2022-12-15T16:24:16.821Z,100898.23
2022-12-15T16:26:50.698Z,100899.52
2022-12-15T16:29:21.937Z,100902.08
2022-12-15T16:31:51.287Z,100906.88
2022-12-15T16:34:21.839Z,100900.73
2022-12-15T16:36:51.188Z,100895.92
2022-12-15T16:39:29.456Z,100899.45
2022-12-15T16:41:58.876Z,100903.27
2022-12-15T16:44:30.771Z,100913.07
2022-12-15T16:47:00.312Z,100914.14
2022-12-15T16:49:35.133Z,100914.31
2022-12-15T16:52:02.357Z,100913.88
2022-12-15T16:54:32.603Z,100915.46
2022-12-15T16:57:02.129Z,100906.44
2022-12-15T16:59:33.600Z,100911.22
2022-12-15T17:02:02.996Z,100912.50
2022-12-15T17:04:32.423Z,100915.57
2022-12-15T17:07:02.015Z,100910.41
2022-12-15T17:09:33.113Z,100912.70
2022-12-15T17:12:02.642Z,100923.31
2022-12-15T17:14:32.521Z,100928.19
2022-12-15T17:17:01.903Z,100923.98
2022-12-15T17:19:31.323Z,100922.50
2022-12-15T17:22:00.819Z,100921.84
2022-12-15T17:24:30.347Z,100926.98
2022-12-15T17:26:59.674Z,100935.66
2022-12-15T17:29:30.860Z,100936.91
2022-12-15T17:32:00.531Z,100932.70
2022-12-15T17:34:34.626Z,100941.98
2022-12-15T17:37:05.983Z,100939.05
2022-12-15T17:39:36.446Z,100939.82
2022-12-15T17:42:08.938Z,100941.53
2022-12-15T17:44:39.773Z,100943.25
2022-12-15T17:47:09.643Z,100939.77
2022-12-15T17:49:39.438Z,100940.80
2022-12-15T17:52:33.290Z,100938.00
2022-12-15T17:55:03.765Z,100946.84
2022-12-15T17:57:33.543Z,100947.17
2022-12-15T18:00:03.677Z,100952.91
2022-12-15T18:02:34.202Z,100944.48
2022-12-15T18:05:03.613Z,100952.31
2022-12-15T18:07:33.325Z,100949.00
2022-12-15T18:10:02.605Z,100950.56
2022-12-15T18:12:32.314Z,100952.00
2022-12-15T18:15:01.726Z,100952.08
2022-12-15T18:17:31.788Z,100954.41
2022-12-15T18:20:02.646Z,100959.38
2022-12-15T18:22:31.911Z,100968.23
2022-12-15T18:25:01.126Z,100966.47
2022-12-15T18:27:31.273Z,100967.58
2022-12-15T18:30:00.625Z,100970.64
2022-12-15T18:32:30.448Z,100972.48
2022-12-15T18:34:59.703Z,100970.47
2022-12-15T18:37:29.765Z,100975.33
2022-12-15T18:40:04.432Z,100970.51
2022-12-15T18:42:30.596Z,100972.15
2022-12-15T18:45:00.676Z,100966.78
2022-12-15T18:47:30.006Z,100969.95
2022-12-15T18:49:59.658Z,100969.57
2022-12-15T18:52:34.507Z,100970.35
2022-12-15T18:55:00.258Z,100970.35
2022-12-15T18:57:33.162Z,100972.50
2022-12-15T19:00:18.044Z,100977.17
2022-12-15T19:02:49.010Z,100969.48
2022-12-15T19:05:32.357Z,100970.44
2022-12-15T19:08:05.530Z,100971.89
2022-12-15T19:10:35.757Z,100980.70
2022-12-15T19:13:05.654Z,100991.02
2022-12-15T19:15:35.287Z,100997.69
2022-12-15T19:18:23.147Z,100993.44
2022-12-15T19:21:10.795Z,101006.13
2022-12-15T19:23:40.068Z,100998.41
2022-12-15T19:26:11.120Z,100997.53
2022-12-15T19:28:40.590Z,100996.33
2022-12-15T19:31:10.053Z,100996.28
2022-12-15T19:33:40.002Z,100994.20
2022-12-15T19:36:18.401Z,100994.70
2022-12-15T19:38:48.173Z,100996.80
2022-12-15T19:41:19.066Z,100998.63
2022-12-15T19:43:48.504Z,101001.86
2022-12-15T19:46:20.619Z,101004.83
2022-12-15T19:48:50.125Z,101004.73
2022-12-15T19:51:23.708Z,101005.73
2022-12-15T19:53:53.174Z,101005.02
2022-12-15T19:56:23.191Z,101008.41
2022-12-15T19:58:52.525Z,101009.21
2022-12-15T20:01:22.010Z,101008.52
2022-12-15T20:03:53.180Z,101011.38
2022-12-15T20:06:25.567Z,101012.50
2022-12-15T20:08:55.902Z,101016.06
2022-12-15T20:11:28.054Z,101015.86
2022-12-15T20:13:57.924Z,101008.20
2022-12-15T20:16:27.268Z,101011.89
2022-12-15T20:18:57.554Z,101008.79
2022-12-15T20:21:31.440Z,101009.05
2022-12-15T20:24:04.826Z,101006.73
2022-12-15T20:26:35.626Z,101004.05
2022-12-15T20:29:06.391Z,101011.27
2022-12-15T20:31:35.664Z,101008.30
2022-12-15T20:34:05.038Z,101008.89
2022-12-15T20:36:36.204Z,101013.09
2022-12-15T20:39:05.583Z,101012.77
2022-12-15T20:41:34.980Z,101014.38
2022-12-15T20:44:06.288Z,101013.37
2022-12-15T20:46:36.569Z,101018.64
2022-12-15T20:49:09.298Z,101014.43
2022-12-15T20:51:38.998Z,101019.00
2022-12-15T20:54:11.399Z,101017.00
2022-12-15T20:56:40.126Z,101020.17
2022-12-15T20:59:09.571Z,101020.31
2022-12-15T21:01:39.538Z,101018.09
2022-12-15T21:04:26.089Z,101008.11
2022-12-15T21:06:55.995Z,101011.56
2022-12-15T21:09:25.753Z,101014.24
2022-12-15T21:11:55.275Z,101013.73
2022-12-15T21:14:25.574Z,101018.66
2022-12-15T21:16:55.163Z,101015.34
2022-12-15T21:19:24.917Z,101015.15
2022-12-15T21:21:55.899Z,101018.34
2022-12-15T21:24:27.147Z,101015.36
2022-12-15T21:26:56.895Z,101011.74
2022-12-15T21:29:28.630Z,101013.52
2022-12-15T21:31:57.915Z,101014.07
2022-12-15T21:34:27.436Z,101021.62
2022-12-15T21:36:56.747Z,101019.32
2022-12-15T21:39:33.198Z,101016.30
2022-12-15T21:42:05.571Z,101017.53
2022-12-15T21:44:36.020Z,101014.46
2022-12-15T21:47:25.648Z,101013.70
2022-12-15T21:49:55.114Z,101012.96
2022-12-15T21:52:25.188Z,101013.11
2022-12-15T21:54:54.780Z,101019.34
2022-12-15T21:57:24.131Z,101012.34
2022-12-15T21:59:54.310Z,101024.11
2022-12-15T22:02:28.414Z,101023.51
2022-12-15T22:04:58.536Z,101020.33
2022-12-15T22:07:27.839Z,101021.64
2022-12-15T22:09:58.802Z,101018.40
2022-12-15T22:12:29.203Z,101008.27
2022-12-15T22:14:58.776Z,101008.28
2022-12-15T22:17:28.097Z,101011.82
2022-12-15T22:19:57.382Z,101007.78
2022-12-15T22:22:31.589Z,101002.02
2022-12-15T22:24:58.246Z,101003.91
2022-12-15T22:27:28.320Z,101007.02
2022-12-15T22:29:57.739Z,101000.84
2022-12-15T22:32:26.997Z,101003.84
2022-12-15T22:34:56.488Z,101007.22
2022-12-15T22:37:25.731Z,101016.14
2022-12-15T22:39:54.968Z,101013.87
2022-12-15T22:42:24.205Z,101012.15
2022-12-15T22:44:53.819Z,101005.08
2022-12-15T22:47:24.300Z,101005.73
2022-12-15T22:49:53.536Z,101000.04
2022-12-15T22:52:24.009Z,101002.68
2022-12-15T22:54:54.353Z,101000.83
2022-12-15T22:57:30.572Z,101002.55
2022-12-15T23:00:08.655Z,100994.52
2022-12-15T23:02:40.841Z,100998.02
2022-12-15T23:05:11.429Z,101002.45
2022-12-15T23:07:41.010Z,101008.22
2022-12-15T23:10:29.317Z,101007.08
2022-12-15T23:12:58.792Z,101006.16
2022-12-15T23:15:47.413Z,101002.98
2022-12-15T23:18:17.118Z,100999.69
2022-12-15T23:20:46.706Z,101003.63
2022-12-15T23:23:16.038Z,101001.83
2022-12-15T23:25:46.832Z,101003.71
2022-12-15T23:28:16.032Z,101010.13
2022-12-15T23:30:50.902Z,101006.34
2022-12-15T23:33:20.405Z,100998.83
2022-12-15T23:35:49.932Z,101001.55
2022-12-15T23:38:19.835Z,101004.94
2022-12-15T23:40:52.699Z,101009.96
2022-12-15T23:43:21.531Z,101001.91
2022-12-15T23:46:02.125Z,101014.68
2022-12-15T23:48:33.386Z,101019.23
2022-12-15T23:51:08.631Z,101007.11
2022-12-15T23:53:38.822Z,101005.17
2022-12-15T23:56:11.131Z,101008.93
2022-12-15T23:58:41.897Z,101007.59
